ZBAA

Beijing Capital International Airport

Beijing, China
TAF ZBAA 181530Z 1818/1918 12004MPS 3500 BR NSC TX33/1906Z TN26/1821Z TEMPO 1818/1824 -TSRA FEW040CB TEMPO 1906/1912 -TSRA FEW040CB
Issued Valid From Valid To
Jul-18 @ 15:30 UTC
(7 hours ago)
Jul-18 @ 18:00 UTC
(5 hours ago)
Jul-19 @ 18:00 UTC
(in 19 hours)
Jul-18 @ 18:00 to Jul-19 @ 18:00
TAF ZBAA 181530Z 1818/1918 12004MPS 3500 BR NSC TX33/1906Z TN26/1821Z
Wind Visibility Clouds Conditions
120° at 8 knots 3,492 meters
  • No significant clouds
  • Mist
Temporary Jul-18 @ 18:00 to Jul-19 @ 00:00
TEMPO 1818/1824 -TSRA FEW040CB
Clouds Conditions
  • Few at 4,000' AGL
  • Light Thunderstorm
  • Light Rain
Temporary Jul-19 @ 06:00 to Jul-19 @ 12:00
TEMPO 1906/1912 -TSRA FEW040CB
Clouds Conditions
  • Few at 4,000' AGL
  • Light Thunderstorm
  • Light Rain
TAF ZBAA 181530Z 1818/1918 12004MPS 3500 BR NSC TX33/1906Z TN26/1821Z TEMPO 1818/1824 -TSRA FEW040CB TEMPO 1906/1912 -TSRA FEW040CB
Issued Jul-18 @ 15:30 UTC
(7 hours ago)
Valid From Jul-18 @ 18:00 UTC
(5 hours ago)
Valid To Jul-19 @ 18:00 UTC
(in 19 hours)
Jul-18 @ 18:00 - Jul-19 @ 18:00
Wind Visibility
120° at 8 knots 3,492 meters
Clouds
  • No significant clouds
Conditions
  • Mist
Temporary Jul-18 @ 18:00 - Jul-19 @ 00:00
Clouds
  • Few at 4,000' AGL
Conditions
  • Light Thunderstorm
  • Light Rain
Temporary Jul-19 @ 06:00 - Jul-19 @ 12:00
Clouds
  • Few at 4,000' AGL
Conditions
  • Light Thunderstorm
  • Light Rain